sensor_id;sensor_type;location;lat;lon;timestamp;P1;P2;P0
64627;PMS5003;68467;50.960;0.314;2023-08-17T00:02:25;27;27;
64627;PMS5003;68467;50.960;0.314;2023-08-17T00:04:52;29;28;
64627;PMS5003;68467;50.960;0.314;2023-08-17T00:07:20;30;28;
64627;PMS5003;68467;50.960;0.314;2023-08-17T00:09:47;29;27;
64627;PMS5003;68467;50.960;0.314;2023-08-17T00:12:14;27;26;
64627;PMS5003;68467;50.960;0.314;2023-08-17T00:14:42;32;31;
64627;PMS5003;68467;50.960;0.314;2023-08-17T00:17:10;27;25;
64627;PMS5003;68467;50.960;0.314;2023-08-17T00:19:38;31;31;
64627;PMS5003;68467;50.960;0.314;2023-08-17T00:22:05;29;29;
64627;PMS5003;68467;50.960;0.314;2023-08-17T00:24:33;26;26;
64627;PMS5003;68467;50.960;0.314;2023-08-17T00:27:00;24;23;
64627;PMS5003;68467;50.960;0.314;2023-08-17T00:29:28;28;25;
64627;PMS5003;68467;50.960;0.314;2023-08-17T00:31:55;28;24;
64627;PMS5003;68467;50.960;0.314;2023-08-17T00:34:22;29;28;
64627;PMS5003;68467;50.960;0.314;2023-08-17T00:36:50;30;29;
64627;PMS5003;68467;50.960;0.314;2023-08-17T00:39:17;27;25;
64627;PMS5003;68467;50.960;0.314;2023-08-17T00:41:44;31;29;
64627;PMS5003;68467;50.960;0.314;2023-08-17T00:44:12;26;25;
64627;PMS5003;68467;50.960;0.314;2023-08-17T00:46:39;31;30;
64627;PMS5003;68467;50.960;0.314;2023-08-17T00:49:06;23;22;
64627;PMS5003;68467;50.960;0.314;2023-08-17T00:51:34;31;30;
64627;PMS5003;68467;50.960;0.314;2023-08-17T00:54:01;24;24;
64627;PMS5003;68467;50.960;0.314;2023-08-17T00:56:29;25;22;
64627;PMS5003;68467;50.960;0.314;2023-08-17T00:58:56;25;25;
64627;PMS5003;68467;50.960;0.314;2023-08-17T01:01:24;27;26;
64627;PMS5003;68467;50.960;0.314;2023-08-17T01:03:51;27;26;
64627;PMS5003;68467;50.960;0.314;2023-08-17T01:06:19;26;24;
64627;PMS5003;68467;50.960;0.314;2023-08-17T01:08:46;26;25;
64627;PMS5003;68467;50.960;0.314;2023-08-17T01:11:17;24;23;
64627;PMS5003;68467;50.960;0.314;2023-08-17T01:13:53;26;26;
64627;PMS5003;68467;50.960;0.314;2023-08-17T01:16:31;29;28;
64627;PMS5003;68467;50.960;0.314;2023-08-17T01:19:07;26;26;
64627;PMS5003;68467;50.960;0.314;2023-08-17T01:21:37;29;27;
64627;PMS5003;68467;50.960;0.314;2023-08-17T01:24:11;30;29;
64627;PMS5003;68467;50.960;0.314;2023-08-17T01:26:38;28;27;
64627;PMS5003;68467;50.960;0.314;2023-08-17T01:29:06;27;26;
64627;PMS5003;68467;50.960;0.314;2023-08-17T01:31:35;24;23;
64627;PMS5003;68467;50.960;0.314;2023-08-17T01:34:20;28;27;
64627;PMS5003;68467;50.960;0.314;2023-08-17T01:36:52;26;24;
64627;PMS5003;68467;50.960;0.314;2023-08-17T01:39:24;24;23;
64627;PMS5003;68467;50.960;0.314;2023-08-17T01:41:58;29;28;
64627;PMS5003;68467;50.960;0.314;2023-08-17T01:44:26;28;25;
64627;PMS5003;68467;50.960;0.314;2023-08-17T01:46:54;27;26;
64627;PMS5003;68467;50.960;0.314;2023-08-17T01:49:22;27;25;
64627;PMS5003;68467;50.960;0.314;2023-08-17T01:51:49;30;27;
64627;PMS5003;68467;50.960;0.314;2023-08-17T01:54:16;26;26;
64627;PMS5003;68467;50.960;0.314;2023-08-17T01:56:44;26;26;
64627;PMS5003;68467;50.960;0.314;2023-08-17T01:59:11;31;31;
64627;PMS5003;68467;50.960;0.314;2023-08-17T02:01:38;26;26;
64627;PMS5003;68467;50.960;0.314;2023-08-17T02:04:06;25;24;
64627;PMS5003;68467;50.960;0.314;2023-08-17T02:06:33;23;21;
64627;PMS5003;68467;50.960;0.314;2023-08-17T02:09:00;26;26;
64627;PMS5003;68467;50.960;0.314;2023-08-17T02:11:27;27;26;
64627;PMS5003;68467;50.960;0.314;2023-08-17T02:13:55;26;25;
64627;PMS5003;68467;50.960;0.314;2023-08-17T02:16:22;27;25;
64627;PMS5003;68467;50.960;0.314;2023-08-17T02:18:49;29;28;
64627;PMS5003;68467;50.960;0.314;2023-08-17T02:21:16;28;26;
64627;PMS5003;68467;50.960;0.314;2023-08-17T02:23:43;28;27;
64627;PMS5003;68467;50.960;0.314;2023-08-17T02:26:10;25;25;
64627;PMS5003;68467;50.960;0.314;2023-08-17T02:28:37;27;25;
64627;PMS5003;68467;50.960;0.314;2023-08-17T02:31:04;26;26;
64627;PMS5003;68467;50.960;0.314;2023-08-17T02:33:31;25;23;
64627;PMS5003;68467;50.960;0.314;2023-08-17T02:35:58;27;26;
64627;PMS5003;68467;50.960;0.314;2023-08-17T02:38:26;25;24;
64627;PMS5003;68467;50.960;0.314;2023-08-17T02:40:53;25;25;
64627;PMS5003;68467;50.960;0.314;2023-08-17T02:43:20;31;29;
64627;PMS5003;68467;50.960;0.314;2023-08-17T02:45:47;28;27;
64627;PMS5003;68467;50.960;0.314;2023-08-17T02:48:14;27;24;
64627;PMS5003;68467;50.960;0.314;2023-08-17T02:50:42;26;25;
64627;PMS5003;68467;50.960;0.314;2023-08-17T02:53:09;25;25;
64627;PMS5003;68467;50.960;0.314;2023-08-17T02:55:36;29;25;
64627;PMS5003;68467;50.960;0.314;2023-08-17T02:58:04;30;28;
64627;PMS5003;68467;50.960;0.314;2023-08-17T03:00:31;31;29;
64627;PMS5003;68467;50.960;0.314;2023-08-17T03:02:58;22;22;
64627;PMS5003;68467;50.960;0.314;2023-08-17T03:05:25;28;27;
64627;PMS5003;68467;50.960;0.314;2023-08-17T03:07:53;26;26;
64627;PMS5003;68467;50.960;0.314;2023-08-17T03:10:20;29;27;
64627;PMS5003;68467;50.960;0.314;2023-08-17T03:12:47;30;30;
64627;PMS5003;68467;50.960;0.314;2023-08-17T03:15:14;28;26;
64627;PMS5003;68467;50.960;0.314;2023-08-17T03:17:41;27;26;
64627;PMS5003;68467;50.960;0.314;2023-08-17T03:20:09;27;24;
64627;PMS5003;68467;50.960;0.314;2023-08-17T03:22:36;25;24;
64627;PMS5003;68467;50.960;0.314;2023-08-17T03:25:04;27;26;
64627;PMS5003;68467;50.960;0.314;2023-08-17T03:27:31;24;24;
64627;PMS5003;68467;50.960;0.314;2023-08-17T03:29:58;29;29;
64627;PMS5003;68467;50.960;0.314;2023-08-17T03:32:26;22;22;
64627;PMS5003;68467;50.960;0.314;2023-08-17T03:34:54;31;29;
64627;PMS5003;68467;50.960;0.314;2023-08-17T03:37:21;23;22;
64627;PMS5003;68467;50.960;0.314;2023-08-17T03:39:48;29;29;
64627;PMS5003;68467;50.960;0.314;2023-08-17T03:42:15;28;27;
64627;PMS5003;68467;50.960;0.314;2023-08-17T03:44:42;25;25;
64627;PMS5003;68467;50.960;0.314;2023-08-17T03:47:09;26;24;
64627;PMS5003;68467;50.960;0.314;2023-08-17T03:49:37;23;23;
64627;PMS5003;68467;50.960;0.314;2023-08-17T03:52:04;25;24;
64627;PMS5003;68467;50.960;0.314;2023-08-17T03:54:31;22;21;
64627;PMS5003;68467;50.960;0.314;2023-08-17T03:56:58;28;27;
64627;PMS5003;68467;50.960;0.314;2023-08-17T03:59:31;25;24;
64627;PMS5003;68467;50.960;0.314;2023-08-17T04:01:58;24;23;
64627;PMS5003;68467;50.960;0.314;2023-08-17T04:04:25;27;27;
64627;PMS5003;68467;50.960;0.314;2023-08-17T04:06:53;24;23;
64627;PMS5003;68467;50.960;0.314;2023-08-17T04:09:20;25;24;
64627;PMS5003;68467;50.960;0.314;2023-08-17T04:11:48;23;23;
64627;PMS5003;68467;50.960;0.314;2023-08-17T04:14:15;22;21;
64627;PMS5003;68467;50.960;0.314;2023-08-17T04:16:42;24;22;
64627;PMS5003;68467;50.960;0.314;2023-08-17T04:19:09;26;25;
64627;PMS5003;68467;50.960;0.314;2023-08-17T04:21:36;21;21;
64627;PMS5003;68467;50.960;0.314;2023-08-17T04:24:04;26;23;
64627;PMS5003;68467;50.960;0.314;2023-08-17T04:26:32;24;23;
64627;PMS5003;68467;50.960;0.314;2023-08-17T04:28:59;28;25;
64627;PMS5003;68467;50.960;0.314;2023-08-17T04:31:26;25;24;
64627;PMS5003;68467;50.960;0.314;2023-08-17T04:33:53;27;25;
64627;PMS5003;68467;50.960;0.314;2023-08-17T04:36:21;30;29;
64627;PMS5003;68467;50.960;0.314;2023-08-17T04:38:47;27;26;
64627;PMS5003;68467;50.960;0.314;2023-08-17T04:41:14;29;27;
64627;PMS5003;68467;50.960;0.314;2023-08-17T04:43:42;22;22;
64627;PMS5003;68467;50.960;0.314;2023-08-17T04:46:09;26;25;
64627;PMS5003;68467;50.960;0.314;2023-08-17T04:48:44;24;23;
64627;PMS5003;68467;50.960;0.314;2023-08-17T04:51:11;28;27;
64627;PMS5003;68467;50.960;0.314;2023-08-17T04:53:40;27;26;
64627;PMS5003;68467;50.960;0.314;2023-08-17T04:56:07;22;22;
64627;PMS5003;68467;50.960;0.314;2023-08-17T04:58:34;25;23;
64627;PMS5003;68467;50.960;0.314;2023-08-17T05:01:01;27;25;
64627;PMS5003;68467;50.960;0.314;2023-08-17T05:03:28;25;23;
64627;PMS5003;68467;50.960;0.314;2023-08-17T05:05:56;24;24;
64627;PMS5003;68467;50.960;0.314;2023-08-17T05:08:23;24;23;
64627;PMS5003;68467;50.960;0.314;2023-08-17T05:10:50;26;25;
64627;PMS5003;68467;50.960;0.314;2023-08-17T05:13:18;23;22;
64627;PMS5003;68467;50.960;0.314;2023-08-17T05:15:46;24;22;
64627;PMS5003;68467;50.960;0.314;2023-08-17T05:18:14;28;25;
64627;PMS5003;68467;50.960;0.314;2023-08-17T05:20:41;20;19;
64627;PMS5003;68467;50.960;0.314;2023-08-17T05:23:09;21;20;
64627;PMS5003;68467;50.960;0.314;2023-08-17T05:25:36;23;21;
64627;PMS5003;68467;50.960;0.314;2023-08-17T05:28:03;21;21;
64627;PMS5003;68467;50.960;0.314;2023-08-17T05:30:31;22;21;
64627;PMS5003;68467;50.960;0.314;2023-08-17T05:32:59;23;21;
64627;PMS5003;68467;50.960;0.314;2023-08-17T05:35:27;23;21;
64627;PMS5003;68467;50.960;0.314;2023-08-17T05:37:53;26;25;
64627;PMS5003;68467;50.960;0.314;2023-08-17T05:40:21;20;20;
64627;PMS5003;68467;50.960;0.314;2023-08-17T05:42:48;24;22;
64627;PMS5003;68467;50.960;0.314;2023-08-17T05:45:16;22;21;
64627;PMS5003;68467;50.960;0.314;2023-08-17T05:47:43;28;26;
64627;PMS5003;68467;50.960;0.314;2023-08-17T05:50:11;19;19;
64627;PMS5003;68467;50.960;0.314;2023-08-17T05:52:38;22;22;
64627;PMS5003;68467;50.960;0.314;2023-08-17T05:55:07;22;22;
64627;PMS5003;68467;50.960;0.314;2023-08-17T05:57:35;19;19;
64627;PMS5003;68467;50.960;0.314;2023-08-17T06:00:03;21;20;
64627;PMS5003;68467;50.960;0.314;2023-08-17T06:02:31;20;20;
64627;PMS5003;68467;50.960;0.314;2023-08-17T06:04:58;21;18;
64627;PMS5003;68467;50.960;0.314;2023-08-17T06:07:25;17;17;
64627;PMS5003;68467;50.960;0.314;2023-08-17T06:09:53;19;19;
64627;PMS5003;68467;50.960;0.314;2023-08-17T06:12:20;17;17;
64627;PMS5003;68467;50.960;0.314;2023-08-17T06:14:47;17;16;
64627;PMS5003;68467;50.960;0.314;2023-08-17T06:17:14;16;16;
64627;PMS5003;68467;50.960;0.314;2023-08-17T06:19:42;19;18;
64627;PMS5003;68467;50.960;0.314;2023-08-17T06:22:08;23;21;
64627;PMS5003;68467;50.960;0.314;2023-08-17T06:24:36;23;21;
64627;PMS5003;68467;50.960;0.314;2023-08-17T06:27:03;16;15;
64627;PMS5003;68467;50.960;0.314;2023-08-17T06:29:31;21;19;
64627;PMS5003;68467;50.960;0.314;2023-08-17T06:31:58;21;20;
64627;PMS5003;68467;50.960;0.314;2023-08-17T06:34:25;18;16;
64627;PMS5003;68467;50.960;0.314;2023-08-17T06:37:01;17;16;
64627;PMS5003;68467;50.960;0.314;2023-08-17T06:39:30;18;17;
64627;PMS5003;68467;50.960;0.314;2023-08-17T06:41:57;20;18;
64627;PMS5003;68467;50.960;0.314;2023-08-17T06:44:24;20;19;
64627;PMS5003;68467;50.960;0.314;2023-08-17T06:46:51;20;19;
64627;PMS5003;68467;50.960;0.314;2023-08-17T06:49:18;22;20;
64627;PMS5003;68467;50.960;0.314;2023-08-17T06:51:46;17;16;
64627;PMS5003;68467;50.960;0.314;2023-08-17T06:54:13;14;14;
64627;PMS5003;68467;50.960;0.314;2023-08-17T06:56:41;17;17;
64627;PMS5003;68467;50.960;0.314;2023-08-17T06:59:08;18;18;
64627;PMS5003;68467;50.960;0.314;2023-08-17T07:01:36;16;16;
64627;PMS5003;68467;50.960;0.314;2023-08-17T07:04:04;17;16;
64627;PMS5003;68467;50.960;0.314;2023-08-17T07:06:31;13;13;
64627;PMS5003;68467;50.960;0.314;2023-08-17T07:08:59;15;14;
64627;PMS5003;68467;50.960;0.314;2023-08-17T07:11:26;17;17;
64627;PMS5003;68467;50.960;0.314;2023-08-17T07:13:54;14;14;
64627;PMS5003;68467;50.960;0.314;2023-08-17T07:16:21;16;16;
64627;PMS5003;68467;50.960;0.314;2023-08-17T07:18:48;14;12;
64627;PMS5003;68467;50.960;0.314;2023-08-17T07:21:15;15;14;
64627;PMS5003;68467;50.960;0.314;2023-08-17T07:23:44;17;17;
64627;PMS5003;68467;50.960;0.314;2023-08-17T07:26:12;15;15;
64627;PMS5003;68467;50.960;0.314;2023-08-17T07:28:39;16;15;
64627;PMS5003;68467;50.960;0.314;2023-08-17T07:31:06;13;13;
64627;PMS5003;68467;50.960;0.314;2023-08-17T07:33:32;12;12;
64627;PMS5003;68467;50.960;0.314;2023-08-17T07:36:00;12;12;
64627;PMS5003;68467;50.960;0.314;2023-08-17T07:38:28;17;17;
64627;PMS5003;68467;50.960;0.314;2023-08-17T07:40:55;11;11;
64627;PMS5003;68467;50.960;0.314;2023-08-17T07:43:22;14;14;
64627;PMS5003;68467;50.960;0.314;2023-08-17T07:45:53;15;14;
64627;PMS5003;68467;50.960;0.314;2023-08-17T07:48:22;14;14;
64627;PMS5003;68467;50.960;0.314;2023-08-17T07:50:49;16;15;
64627;PMS5003;68467;50.960;0.314;2023-08-17T07:53:17;12;12;
64627;PMS5003;68467;50.960;0.314;2023-08-17T07:55:45;12;12;
64627;PMS5003;68467;50.960;0.314;2023-08-17T07:58:13;14;14;
64627;PMS5003;68467;50.960;0.314;2023-08-17T08:00:40;12;12;
64627;PMS5003;68467;50.960;0.314;2023-08-17T08:03:06;14;13;
64627;PMS5003;68467;50.960;0.314;2023-08-17T08:05:33;12;12;
64627;PMS5003;68467;50.960;0.314;2023-08-17T08:08:00;12;12;
64627;PMS5003;68467;50.960;0.314;2023-08-17T08:10:27;14;14;
64627;PMS5003;68467;50.960;0.314;2023-08-17T08:12:54;15;15;
64627;PMS5003;68467;50.960;0.314;2023-08-17T08:15:21;15;14;
64627;PMS5003;68467;50.960;0.314;2023-08-17T08:17:49;14;14;
64627;PMS5003;68467;50.960;0.314;2023-08-17T08:20:17;13;13;
64627;PMS5003;68467;50.960;0.314;2023-08-17T08:22:44;15;15;
64627;PMS5003;68467;50.960;0.314;2023-08-17T08:25:11;13;12;
64627;PMS5003;68467;50.960;0.314;2023-08-17T08:27:39;14;14;
64627;PMS5003;68467;50.960;0.314;2023-08-17T08:30:07;13;12;
64627;PMS5003;68467;50.960;0.314;2023-08-17T08:32:35;13;13;
64627;PMS5003;68467;50.960;0.314;2023-08-17T08:35:01;15;14;
64627;PMS5003;68467;50.960;0.314;2023-08-17T08:37:29;11;11;
64627;PMS5003;68467;50.960;0.314;2023-08-17T08:39:57;12;12;
64627;PMS5003;68467;50.960;0.314;2023-08-17T08:42:24;12;11;
64627;PMS5003;68467;50.960;0.314;2023-08-17T08:44:51;14;13;
64627;PMS5003;68467;50.960;0.314;2023-08-17T08:47:19;11;11;
64627;PMS5003;68467;50.960;0.314;2023-08-17T08:49:49;11;11;
64627;PMS5003;68467;50.960;0.314;2023-08-17T08:52:22;12;12;
64627;PMS5003;68467;50.960;0.314;2023-08-17T08:54:53;11;10;
64627;PMS5003;68467;50.960;0.314;2023-08-17T08:57:24;9;9;
64627;PMS5003;68467;50.960;0.314;2023-08-17T08:59:54;12;11;
64627;PMS5003;68467;50.960;0.314;2023-08-17T09:02:23;10;10;
64627;PMS5003;68467;50.960;0.314;2023-08-17T09:04:51;8;8;
64627;PMS5003;68467;50.960;0.314;2023-08-17T09:07:19;11;11;
64627;PMS5003;68467;50.960;0.314;2023-08-17T09:09:48;10;10;
64627;PMS5003;68467;50.960;0.314;2023-08-17T09:12:16;9;9;
64627;PMS5003;68467;50.960;0.314;2023-08-17T09:14:43;11;11;
64627;PMS5003;68467;50.960;0.314;2023-08-17T09:17:10;10;10;
64627;PMS5003;68467;50.960;0.314;2023-08-17T09:19:37;11;11;
64627;PMS5003;68467;50.960;0.314;2023-08-17T09:22:04;10;10;
64627;PMS5003;68467;50.960;0.314;2023-08-17T09:24:34;8;8;
64627;PMS5003;68467;50.960;0.314;2023-08-17T09:27:02;10;10;
64627;PMS5003;68467;50.960;0.314;2023-08-17T09:29:31;9;9;
64627;PMS5003;68467;50.960;0.314;2023-08-17T09:31:58;10;10;
64627;PMS5003;68467;50.960;0.314;2023-08-17T09:34:30;9;9;
64627;PMS5003;68467;50.960;0.314;2023-08-17T09:37:02;7;7;
64627;PMS5003;68467;50.960;0.314;2023-08-17T09:39:29;11;9;
64627;PMS5003;68467;50.960;0.314;2023-08-17T09:41:56;9;9;
64627;PMS5003;68467;50.960;0.314;2023-08-17T09:44:24;7;7;
64627;PMS5003;68467;50.960;0.314;2023-08-17T09:46:50;6;6;
64627;PMS5003;68467;50.960;0.314;2023-08-17T09:49:22;7;7;
64627;PMS5003;68467;50.960;0.314;2023-08-17T09:51:49;7;7;
64627;PMS5003;68467;50.960;0.314;2023-08-17T09:54:18;7;7;
64627;PMS5003;68467;50.960;0.314;2023-08-17T09:56:48;7;7;
64627;PMS5003;68467;50.960;0.314;2023-08-17T09:59:16;7;7;
64627;PMS5003;68467;50.960;0.314;2023-08-17T10:01:44;7;7;
64627;PMS5003;68467;50.960;0.314;2023-08-17T10:04:14;7;6;
64627;PMS5003;68467;50.960;0.314;2023-08-17T10:06:46;7;7;
64627;PMS5003;68467;50.960;0.314;2023-08-17T10:09:15;7;6;
64627;PMS5003;68467;50.960;0.314;2023-08-17T10:11:49;7;7;
64627;PMS5003;68467;50.960;0.314;2023-08-17T10:14:21;7;7;
64627;PMS5003;68467;50.960;0.314;2023-08-17T10:16:55;6;6;
64627;PMS5003;68467;50.960;0.314;2023-08-17T10:19:30;8;7;
64627;PMS5003;68467;50.960;0.314;2023-08-17T10:22:06;8;8;
64627;PMS5003;68467;50.960;0.314;2023-08-17T10:24:39;6;6;
64627;PMS5003;68467;50.960;0.314;2023-08-17T10:27:06;5;5;
64627;PMS5003;68467;50.960;0.314;2023-08-17T10:29:36;4;4;
64627;PMS5003;68467;50.960;0.314;2023-08-17T10:32:06;5;5;
64627;PMS5003;68467;50.960;0.314;2023-08-17T10:34:34;5;4;
64627;PMS5003;68467;50.960;0.314;2023-08-17T10:37:01;5;5;
64627;PMS5003;68467;50.960;0.314;2023-08-17T10:39:30;5;5;
64627;PMS5003;68467;50.960;0.314;2023-08-17T10:41:58;4;4;
64627;PMS5003;68467;50.960;0.314;2023-08-17T10:44:43;5;5;
64627;PMS5003;68467;50.960;0.314;2023-08-17T10:47:19;4;4;
64627;PMS5003;68467;50.960;0.314;2023-08-17T10:49:48;6;6;
64627;PMS5003;68467;50.960;0.314;2023-08-17T10:52:24;6;6;
64627;PMS5003;68467;50.960;0.314;2023-08-17T10:54:53;6;6;
64627;PMS5003;68467;50.960;0.314;2023-08-17T10:57:28;5;5;
64627;PMS5003;68467;50.960;0.314;2023-08-17T11:00:14;8;7;
64627;PMS5003;68467;50.960;0.314;2023-08-17T11:02:44;5;5;
64627;PMS5003;68467;50.960;0.314;2023-08-17T11:05:12;6;6;
64627;PMS5003;68467;50.960;0.314;2023-08-17T11:07:41;6;6;
64627;PMS5003;68467;50.960;0.314;2023-08-17T11:10:11;4;4;
64627;PMS5003;68467;50.960;0.314;2023-08-17T11:12:53;3;3;
64627;PMS5003;68467;50.960;0.314;2023-08-17T11:15:21;6;6;
64627;PMS5003;68467;50.960;0.314;2023-08-17T11:17:47;5;5;
64627;PMS5003;68467;50.960;0.314;2023-08-17T11:20:15;3;3;
64627;PMS5003;68467;50.960;0.314;2023-08-17T11:22:43;6;6;
64627;PMS5003;68467;50.960;0.314;2023-08-17T11:25:12;5;4;
64627;PMS5003;68467;50.960;0.314;2023-08-17T11:27:40;5;5;
64627;PMS5003;68467;50.960;0.314;2023-08-17T11:30:08;4;4;
64627;PMS5003;68467;50.960;0.314;2023-08-17T11:32:36;3;3;
64627;PMS5003;68467;50.960;0.314;2023-08-17T11:35:04;4;4;
64627;PMS5003;68467;50.960;0.314;2023-08-17T11:37:31;6;5;
64627;PMS5003;68467;50.960;0.314;2023-08-17T11:39:59;3;3;
64627;PMS5003;68467;50.960;0.314;2023-08-17T11:42:26;4;4;
64627;PMS5003;68467;50.960;0.314;2023-08-17T11:44:53;4;4;
64627;PMS5003;68467;50.960;0.314;2023-08-17T11:47:21;3;3;
64627;PMS5003;68467;50.960;0.314;2023-08-17T11:49:48;4;4;
64627;PMS5003;68467;50.960;0.314;2023-08-17T11:52:16;5;5;
64627;PMS5003;68467;50.960;0.314;2023-08-17T11:54:43;5;5;
64627;PMS5003;68467;50.960;0.314;2023-08-17T11:57:11;3;3;
64627;PMS5003;68467;50.960;0.314;2023-08-17T11:59:38;4;4;
64627;PMS5003;68467;50.960;0.314;2023-08-17T12:02:06;2;2;
64627;PMS5003;68467;50.960;0.314;2023-08-17T12:04:33;4;4;
64627;PMS5003;68467;50.960;0.314;2023-08-17T12:07:01;3;3;
64627;PMS5003;68467;50.960;0.314;2023-08-17T12:09:31;4;4;
64627;PMS5003;68467;50.960;0.314;2023-08-17T12:11:59;3;3;
64627;PMS5003;68467;50.960;0.314;2023-08-17T12:14:27;4;4;
64627;PMS5003;68467;50.960;0.314;2023-08-17T12:16:55;4;4;
64627;PMS5003;68467;50.960;0.314;2023-08-17T12:19:24;5;4;
64627;PMS5003;68467;50.960;0.314;2023-08-17T12:21:52;2;2;
64627;PMS5003;68467;50.960;0.314;2023-08-17T12:24:19;3;3;
64627;PMS5003;68467;50.960;0.314;2023-08-17T12:26:49;2;2;
64627;PMS5003;68467;50.960;0.314;2023-08-17T12:29:16;2;2;
64627;PMS5003;68467;50.960;0.314;2023-08-17T12:31:44;2;1;
64627;PMS5003;68467;50.960;0.314;2023-08-17T12:34:12;4;4;
64627;PMS5003;68467;50.960;0.314;2023-08-17T12:36:42;4;4;
64627;PMS5003;68467;50.960;0.314;2023-08-17T12:39:10;4;4;
64627;PMS5003;68467;50.960;0.314;2023-08-17T12:41:37;5;5;
64627;PMS5003;68467;50.960;0.314;2023-08-17T12:44:04;4;4;
64627;PMS5003;68467;50.960;0.314;2023-08-17T12:46:32;5;5;
64627;PMS5003;68467;50.960;0.314;2023-08-17T12:48:58;4;4;
64627;PMS5003;68467;50.960;0.314;2023-08-17T12:51:26;4;4;
64627;PMS5003;68467;50.960;0.314;2023-08-17T12:53:53;4;4;
64627;PMS5003;68467;50.960;0.314;2023-08-17T12:56:20;3;3;
64627;PMS5003;68467;50.960;0.314;2023-08-17T12:58:48;3;3;
64627;PMS5003;68467;50.960;0.314;2023-08-17T13:01:15;5;5;
64627;PMS5003;68467;50.960;0.314;2023-08-17T13:03:43;3;3;
64627;PMS5003;68467;50.960;0.314;2023-08-17T13:06:11;4;4;
64627;PMS5003;68467;50.960;0.314;2023-08-17T13:08:38;4;4;
64627;PMS5003;68467;50.960;0.314;2023-08-17T13:11:05;3;3;
64627;PMS5003;68467;50.960;0.314;2023-08-17T13:13:32;3;3;
64627;PMS5003;68467;50.960;0.314;2023-08-17T13:15:59;2;2;
64627;PMS5003;68467;50.960;0.314;2023-08-17T13:18:27;2;2;
64627;PMS5003;68467;50.960;0.314;2023-08-17T13:20:54;4;3;
64627;PMS5003;68467;50.960;0.314;2023-08-17T13:23:22;3;3;
64627;PMS5003;68467;50.960;0.314;2023-08-17T13:25:49;4;4;
64627;PMS5003;68467;50.960;0.314;2023-08-17T13:28:16;3;3;
64627;PMS5003;68467;50.960;0.314;2023-08-17T13:30:44;3;3;
64627;PMS5003;68467;50.960;0.314;2023-08-17T13:33:12;2;2;
64627;PMS5003;68467;50.960;0.314;2023-08-17T13:35:39;2;2;
64627;PMS5003;68467;50.960;0.314;2023-08-17T13:38:07;3;3;
64627;PMS5003;68467;50.960;0.314;2023-08-17T13:40:35;3;3;
64627;PMS5003;68467;50.960;0.314;2023-08-17T13:43:03;5;4;
64627;PMS5003;68467;50.960;0.314;2023-08-17T13:45:31;5;4;
64627;PMS5003;68467;50.960;0.314;2023-08-17T13:47:58;4;4;
64627;PMS5003;68467;50.960;0.314;2023-08-17T13:50:26;4;4;
64627;PMS5003;68467;50.960;0.314;2023-08-17T13:52:53;3;3;
64627;PMS5003;68467;50.960;0.314;2023-08-17T13:55:21;4;4;
64627;PMS5003;68467;50.960;0.314;2023-08-17T13:57:49;4;4;
64627;PMS5003;68467;50.960;0.314;2023-08-17T14:00:16;4;4;
64627;PMS5003;68467;50.960;0.314;2023-08-17T14:02:43;3;3;
64627;PMS5003;68467;50.960;0.314;2023-08-17T14:05:11;5;5;
64627;PMS5003;68467;50.960;0.314;2023-08-17T14:07:39;4;3;
64627;PMS5003;68467;50.960;0.314;2023-08-17T14:10:06;5;5;
64627;PMS5003;68467;50.960;0.314;2023-08-17T14:12:35;5;5;
64627;PMS5003;68467;50.960;0.314;2023-08-17T14:15:03;5;4;
64627;PMS5003;68467;50.960;0.314;2023-08-17T14:17:31;5;4;
64627;PMS5003;68467;50.960;0.314;2023-08-17T14:19:58;3;3;
64627;PMS5003;68467;50.960;0.314;2023-08-17T14:22:25;4;4;
64627;PMS5003;68467;50.960;0.314;2023-08-17T14:24:52;4;4;
64627;PMS5003;68467;50.960;0.314;2023-08-17T14:27:20;4;3;
64627;PMS5003;68467;50.960;0.314;2023-08-17T14:29:53;4;4;
64627;PMS5003;68467;50.960;0.314;2023-08-17T14:32:20;3;3;
64627;PMS5003;68467;50.960;0.314;2023-08-17T14:34:48;4;4;
64627;PMS5003;68467;50.960;0.314;2023-08-17T14:37:15;4;4;
64627;PMS5003;68467;50.960;0.314;2023-08-17T14:39:43;3;3;
64627;PMS5003;68467;50.960;0.314;2023-08-17T14:42:10;3;2;
64627;PMS5003;68467;50.960;0.314;2023-08-17T14:44:38;3;3;
64627;PMS5003;68467;50.960;0.314;2023-08-17T14:47:05;4;4;
64627;PMS5003;68467;50.960;0.314;2023-08-17T14:49:32;3;3;
64627;PMS5003;68467;50.960;0.314;2023-08-17T14:52:00;5;5;
64627;PMS5003;68467;50.960;0.314;2023-08-17T14:54:27;4;4;
64627;PMS5003;68467;50.960;0.314;2023-08-17T14:56:54;3;3;
64627;PMS5003;68467;50.960;0.314;2023-08-17T14:59:21;3;2;
64627;PMS5003;68467;50.960;0.314;2023-08-17T15:01:49;3;3;
64627;PMS5003;68467;50.960;0.314;2023-08-17T15:04:16;2;2;
64627;PMS5003;68467;50.960;0.314;2023-08-17T15:06:43;4;4;
64627;PMS5003;68467;50.960;0.314;2023-08-17T15:09:11;2;2;
64627;PMS5003;68467;50.960;0.314;2023-08-17T15:11:38;3;3;
64627;PMS5003;68467;50.960;0.314;2023-08-17T15:14:04;4;4;
64627;PMS5003;68467;50.960;0.314;2023-08-17T15:16:31;6;4;
64627;PMS5003;68467;50.960;0.314;2023-08-17T15:18:58;4;4;
64627;PMS5003;68467;50.960;0.314;2023-08-17T15:21:25;3;3;
64627;PMS5003;68467;50.960;0.314;2023-08-17T15:23:52;3;3;
64627;PMS5003;68467;50.960;0.314;2023-08-17T15:26:19;3;3;
64627;PMS5003;68467;50.960;0.314;2023-08-17T15:28:46;3;3;
64627;PMS5003;68467;50.960;0.314;2023-08-17T15:31:13;4;4;
64627;PMS5003;68467;50.960;0.314;2023-08-17T15:33:40;2;2;
64627;PMS5003;68467;50.960;0.314;2023-08-17T15:36:07;4;3;
64627;PMS5003;68467;50.960;0.314;2023-08-17T15:38:34;5;4;
64627;PMS5003;68467;50.960;0.314;2023-08-17T15:41:01;2;2;
64627;PMS5003;68467;50.960;0.314;2023-08-17T15:43:29;3;3;
64627;PMS5003;68467;50.960;0.314;2023-08-17T15:45:56;4;4;
64627;PMS5003;68467;50.960;0.314;2023-08-17T15:48:23;3;3;
64627;PMS5003;68467;50.960;0.314;2023-08-17T15:50:51;2;2;
64627;PMS5003;68467;50.960;0.314;2023-08-17T15:53:18;4;4;
64627;PMS5003;68467;50.960;0.314;2023-08-17T15:55:46;4;4;
64627;PMS5003;68467;50.960;0.314;2023-08-17T15:58:14;4;3;
64627;PMS5003;68467;50.960;0.314;2023-08-17T16:00:41;5;4;
64627;PMS5003;68467;50.960;0.314;2023-08-17T16:03:08;4;4;
64627;PMS5003;68467;50.960;0.314;2023-08-17T16:05:36;3;3;
64627;PMS5003;68467;50.960;0.314;2023-08-17T16:08:03;5;5;
64627;PMS5003;68467;50.960;0.314;2023-08-17T16:10:31;4;4;
64627;PMS5003;68467;50.960;0.314;2023-08-17T16:12:58;6;5;
64627;PMS5003;68467;50.960;0.314;2023-08-17T16:15:25;5;4;
64627;PMS5003;68467;50.960;0.314;2023-08-17T16:17:52;4;4;
64627;PMS5003;68467;50.960;0.314;2023-08-17T16:20:19;4;4;
64627;PMS5003;68467;50.960;0.314;2023-08-17T16:22:47;3;3;
64627;PMS5003;68467;50.960;0.314;2023-08-17T16:25:14;3;3;
64627;PMS5003;68467;50.960;0.314;2023-08-17T16:27:41;3;3;
64627;PMS5003;68467;50.960;0.314;2023-08-17T16:30:08;5;5;
64627;PMS5003;68467;50.960;0.314;2023-08-17T16:32:36;4;3;
64627;PMS5003;68467;50.960;0.314;2023-08-17T16:35:03;7;5;
64627;PMS5003;68467;50.960;0.314;2023-08-17T16:37:31;4;4;